createdAt,value
2022-11-08T00:00:44.187Z,12.40
2022-11-08T00:03:11.045Z,12.40
2022-11-08T00:05:57.025Z,12.40
2022-11-08T00:08:42.536Z,12.50
2022-11-08T00:11:28.272Z,12.50
2022-11-08T00:13:58.434Z,12.50
2022-11-08T00:16:26.096Z,12.50
2022-11-08T00:18:52.965Z,12.50
2022-11-08T00:21:20.013Z,12.50
2022-11-08T00:23:47.233Z,12.50
2022-11-08T00:26:14.118Z,12.40
2022-11-08T00:28:41.032Z,12.40
2022-11-08T00:31:07.999Z,12.30
2022-11-08T00:33:35.038Z,12.30
2022-11-08T00:36:03.265Z,12.30
2022-11-08T00:38:30.316Z,12.30
2022-11-08T00:40:57.232Z,12.30
2022-11-08T00:43:24.178Z,12.30
2022-11-08T00:45:51.045Z,12.30
2022-11-08T00:48:18.439Z,12.20
2022-11-08T00:50:45.616Z,12.20
2022-11-08T00:53:12.680Z,12.20
2022-11-08T00:55:39.868Z,12.20
2022-11-08T00:58:06.799Z,12.20
2022-11-08T01:00:33.936Z,12.20
2022-11-08T01:03:19.219Z,12.20
2022-11-08T01:05:47.969Z,12.10
2022-11-08T01:08:15.752Z,12.10
2022-11-08T01:10:45.904Z,12.20
2022-11-08T01:13:13.034Z,12.10
2022-11-08T01:15:42.196Z,12.10
2022-11-08T01:18:11.732Z,12.10
2022-11-08T01:20:43.398Z,12.10
2022-11-08T01:23:11.738Z,12.20
2022-11-08T01:25:41.232Z,12.10
2022-11-08T01:28:08.392Z,12.10
2022-11-08T01:30:39.893Z,12.10
2022-11-08T01:33:07.740Z,12.10
2022-11-08T01:35:36.554Z,12.10
2022-11-08T01:38:04.728Z,12.00
2022-11-08T01:40:32.605Z,12.00
2022-11-08T01:42:59.602Z,12.00
2022-11-08T01:46:00.124Z,12.00
2022-11-08T01:51:25.142Z,12.00
2022-11-08T01:56:51.429Z,12.00
2022-11-08T02:11:50.226Z,12.00
2022-11-08T02:30:40.597Z,12.00
2022-11-08T02:33:18.356Z,12.00
2022-11-08T02:41:17.670Z,12.00
2022-11-08T02:49:03.897Z,12.00
2022-11-08T02:51:31.288Z,12.00
2022-11-08T02:53:58.447Z,12.10
2022-11-08T02:56:25.427Z,12.10
2022-11-08T02:58:52.363Z,12.10
2022-11-08T03:01:19.353Z,12.10
2022-11-08T03:03:46.397Z,12.20
2022-11-08T03:06:13.494Z,12.20
2022-11-08T03:08:40.480Z,12.20
2022-11-08T03:11:07.652Z,12.20
2022-11-08T03:13:34.977Z,12.30
2022-11-08T03:16:06.079Z,12.30
2022-11-08T03:18:32.951Z,12.30
2022-11-08T03:21:03.649Z,12.30
2022-11-08T03:23:31.428Z,12.20
2022-11-08T03:26:01.804Z,12.20
2022-11-08T03:28:29.461Z,12.30
2022-11-08T03:30:56.455Z,12.30
2022-11-08T03:33:23.420Z,12.30
2022-11-08T03:35:52.435Z,12.20
2022-11-08T03:38:19.601Z,12.20
2022-11-08T03:40:47.311Z,12.30
2022-11-08T03:43:14.687Z,12.30
2022-11-08T03:45:41.744Z,12.30
2022-11-08T03:48:08.934Z,12.30
2022-11-08T03:50:35.868Z,12.30
2022-11-08T03:53:02.896Z,12.30
2022-11-08T03:55:29.875Z,12.30
2022-11-08T03:57:57.287Z,12.20
2022-11-08T04:00:27.797Z,12.20
2022-11-08T04:02:55.495Z,12.20
2022-11-08T04:05:22.730Z,12.20
2022-11-08T04:07:49.658Z,12.20
2022-11-08T04:10:17.956Z,12.20
2022-11-08T04:13:03.989Z,12.10
2022-11-08T04:15:31.735Z,12.10
2022-11-08T04:18:18.104Z,12.10
2022-11-08T04:21:06.808Z,12.10
2022-11-08T04:23:35.636Z,12.00
2022-11-08T04:26:06.678Z,12.00
2022-11-08T04:28:35.983Z,12.10
2022-11-08T04:31:13.494Z,12.10
2022-11-08T04:33:40.577Z,12.10
2022-11-08T04:36:12.670Z,12.00
2022-11-08T04:38:39.830Z,12.10
2022-11-08T04:41:10.009Z,12.00
2022-11-08T04:43:37.520Z,12.00
2022-11-08T04:46:07.321Z,12.00
2022-11-08T04:48:34.771Z,12.00
2022-11-08T04:51:16.824Z,12.00
2022-11-08T04:53:43.749Z,12.00
2022-11-08T04:56:13.047Z,12.00
2022-11-08T04:58:42.363Z,12.00
2022-11-08T05:01:11.357Z,12.00
2022-11-08T05:03:38.269Z,12.00
2022-11-08T05:06:11.591Z,11.90
2022-11-08T05:08:38.926Z,11.80
2022-11-08T05:11:17.099Z,11.70
2022-11-08T05:13:44.865Z,11.60
2022-11-08T05:16:19.714Z,11.60
2022-11-08T05:18:47.178Z,11.60
2022-11-08T05:21:35.446Z,11.50
2022-11-08T05:24:03.621Z,11.40
2022-11-08T05:26:33.185Z,11.40
2022-11-08T05:29:00.243Z,11.30
2022-11-08T05:31:27.352Z,11.30
2022-11-08T05:33:54.324Z,11.20
2022-11-08T05:36:21.499Z,11.20
2022-11-08T05:38:48.669Z,11.20
2022-11-08T05:41:19.237Z,11.10
2022-11-08T05:43:47.971Z,11.10
2022-11-08T05:46:15.088Z,11.00
2022-11-08T05:48:43.552Z,10.90
2022-11-08T05:51:12.223Z,10.90
2022-11-08T05:53:40.492Z,10.80
2022-11-08T05:56:08.154Z,10.80
2022-11-08T05:58:35.843Z,10.80
2022-11-08T06:01:04.730Z,10.80
2022-11-08T06:03:32.245Z,10.70
2022-11-08T06:06:12.739Z,10.70
2022-11-08T06:08:40.590Z,10.70
2022-11-08T06:11:16.169Z,10.70
2022-11-08T06:13:43.479Z,10.70
2022-11-08T06:16:14.176Z,10.70
2022-11-08T06:18:43.201Z,10.70
2022-11-08T06:21:15.898Z,10.80
2022-11-08T06:23:43.144Z,10.70
2022-11-08T06:26:10.554Z,10.60
2022-11-08T06:28:37.809Z,10.50
2022-11-08T06:31:05.692Z,10.50
2022-11-08T06:33:33.068Z,10.40
2022-11-08T06:36:00.139Z,10.40
2022-11-08T06:38:27.078Z,10.40
2022-11-08T06:40:54.026Z,10.40
2022-11-08T06:43:21.556Z,10.40
2022-11-08T06:45:48.924Z,10.30
2022-11-08T06:48:15.968Z,10.30
2022-11-08T06:50:43.551Z,10.30
2022-11-08T06:53:13.106Z,10.30
2022-11-08T06:55:40.585Z,10.20
2022-11-08T06:58:07.540Z,10.20
2022-11-08T07:00:34.483Z,10.10
2022-11-08T07:03:02.913Z,10.10
2022-11-08T07:05:32.692Z,10.10
2022-11-08T07:08:00.438Z,10.10
2022-11-08T07:10:31.568Z,10.10
2022-11-08T07:13:24.745Z,10.10
2022-11-08T07:15:51.865Z,10.10
2022-11-08T07:18:20.115Z,10.10
2022-11-08T07:20:47.353Z,10.00
2022-11-08T07:23:14.468Z,9.90
2022-11-08T07:25:41.712Z,9.80
2022-11-08T07:28:14.845Z,9.80
2022-11-08T07:30:41.828Z,9.80
2022-11-08T07:33:08.738Z,9.80
2022-11-08T07:35:35.599Z,9.70
2022-11-08T07:38:02.448Z,9.70
2022-11-08T07:40:29.872Z,9.70
2022-11-08T07:43:15.507Z,9.60
2022-11-08T07:45:43.102Z,9.60
2022-11-08T07:48:13.479Z,9.60
2022-11-08T07:50:42.301Z,9.60
2022-11-08T07:53:09.987Z,9.50
2022-11-08T07:55:37.935Z,9.50
2022-11-08T07:58:05.483Z,9.40
2022-11-08T08:00:34.004Z,9.40
2022-11-08T08:03:02.380Z,9.40
2022-11-08T08:05:38.733Z,9.40
2022-11-08T08:08:06.309Z,9.30
2022-11-08T08:10:33.421Z,9.40
2022-11-08T08:13:01.168Z,9.30
2022-11-08T08:15:28.060Z,9.30
2022-11-08T08:17:54.939Z,9.30
2022-11-08T08:20:21.920Z,9.30
2022-11-08T08:22:50.635Z,9.30
2022-11-08T08:25:18.591Z,9.30
2022-11-08T08:27:49.574Z,9.30
2022-11-08T08:30:17.852Z,9.40
2022-11-08T08:32:47.988Z,9.50
2022-11-08T08:35:17.492Z,9.40
2022-11-08T08:37:44.460Z,9.50
2022-11-08T08:40:11.984Z,9.90
2022-11-08T08:42:38.981Z,10.60
2022-11-08T08:45:10.662Z,11.00
2022-11-08T08:47:40.487Z,11.30
